Time;durP1;ratioP1;P1;durP2;ratioP2;P2;SDS_P1;SDS_P2;PMS_P1;PMS_P2;Temp;Humidity;BMP_temperature;BMP_pressure;BME280_temperature;BME280_humidity;BME280_pressure;Samples;Min_cycle;Max_cycle;Signal;HPM_P1;HPM_P2
2021/06/10 00:01:54;;;;;;;6.15;5.10;;;16.30;87.70;;;;;;5075313;28;20505;-86
2021/06/10 00:04:20;;;;;;;9.02;6.40;;;16.30;87.70;;;;;;5075981;28;20020;-86
2021/06/10 00:06:46;;;;;;;7.80;5.63;;;16.30;87.40;;;;;;5074827;28;20032;-87
2021/06/10 00:09:11;;;;;;;8.18;5.32;;;16.30;87.50;;;;;;5077569;28;20020;-86
2021/06/10 00:11:37;;;;;;;8.55;5.40;;;16.30;87.60;;;;;;5078204;28;20096;-87
2021/06/10 00:14:03;;;;;;;6.47;5.40;;;16.30;87.60;;;;;;5082868;28;20081;-85
2021/06/10 00:16:29;;;;;;;6.78;5.15;;;16.30;87.40;;;;;;5090057;28;20027;-86
2021/06/10 00:18:57;;;;;;;7.35;4.95;;;16.30;87.30;;;;;;5086436;28;20465;-86
2021/06/10 00:21:24;;;;;;;9.52;5.63;;;16.30;87.20;;;;;;5073327;28;20025;-87
2021/06/10 00:23:50;;;;;;;7.38;5.85;;;16.30;87.20;;;;;;5064770;28;20017;-87
2021/06/10 00:26:16;;;;;;;6.50;5.18;;;16.30;87.20;;;;;;5070246;28;20028;-84
2021/06/10 00:28:41;;;;;;;7.38;6.05;;;16.30;87.30;;;;;;5077469;28;20123;-85
2021/06/10 00:31:07;;;;;;;7.03;5.95;;;16.30;87.30;;;;;;5071031;28;20028;-87
2021/06/10 00:33:33;;;;;;;7.80;5.85;;;16.20;87.30;;;;;;5048911;28;20043;-87
2021/06/10 00:35:59;;;;;;;7.05;5.68;;;16.20;87.10;;;;;;5073524;28;20032;-87
2021/06/10 00:38:24;;;;;;;12.30;6.10;;;16.20;87.00;;;;;;5052698;28;20028;-85
2021/06/10 00:40:51;;;;;;;9.75;5.70;;;16.20;87.10;;;;;;5063699;28;20477;-87
2021/06/10 00:43:17;;;;;;;8.10;6.13;;;16.20;87.20;;;;;;5065762;28;20095;-84
2021/06/10 00:45:43;;;;;;;5.60;5.00;;;16.10;87.70;;;;;;5045256;28;20809;-86
2021/06/10 00:48:09;;;;;;;7.07;6.07;;;16.10;87.30;;;;;;5058610;28;20040;-86
2021/06/10 00:50:43;;;;;;;12.25;6.38;;;16.10;87.40;;;;;;5066422;28;20020;-86
2021/06/10 00:53:20;;;;;;;7.32;5.68;;;16.10;87.40;;;;;;5063477;28;20028;-86
2021/06/10 00:55:51;;;;;;;8.25;6.05;;;16.00;87.40;;;;;;5061123;28;20029;-85
2021/06/10 00:58:17;;;;;;;7.80;5.57;;;16.00;87.50;;;;;;5056552;28;20128;-88
2021/06/10 01:00:42;;;;;;;7.80;5.88;;;16.00;87.50;;;;;;5075779;28;20021;-84
2021/06/10 01:03:09;;;;;;;10.63;5.78;;;16.00;87.60;;;;;;5066851;28;20103;-85
2021/06/10 01:05:38;;;;;;;10.38;6.10;;;16.00;87.70;;;;;;5078364;28;20023;-85
2021/06/10 01:08:13;;;;;;;8.60;6.43;;;16.00;87.80;;;;;;5080264;28;20078;-85
2021/06/10 01:10:57;;;;;;;7.75;5.30;;;15.90;87.90;;;;;;5078237;28;20103;-85
2021/06/10 01:13:31;;;;;;;11.13;6.32;;;15.90;87.90;;;;;;5073885;28;20051;-86
2021/06/10 01:16:02;;;;;;;7.35;5.90;;;15.90;87.80;;;;;;5070430;28;20051;-86
2021/06/10 01:18:31;;;;;;;10.13;6.47;;;15.90;87.90;;;;;;5072472;28;20021;-87
2021/06/10 01:20:57;;;;;;;7.38;6.57;;;15.90;87.90;;;;;;5063182;28;20017;-84
2021/06/10 01:23:45;;;;;;;8.73;5.77;;;15.90;87.90;;;;;;5051314;28;20041;-87
2021/06/10 01:26:59;;;;;;;8.85;6.07;;;15.90;87.70;;;;;;5068836;28;20031;-85
2021/06/10 01:29:26;;;;;;;8.27;6.07;;;15.90;87.80;;;;;;5049135;28;20049;-87
2021/06/10 01:31:54;;;;;;;7.07;5.20;;;15.90;87.70;;;;;;5068996;28;20021;-85
2021/06/10 01:34:22;;;;;;;6.57;5.25;;;15.90;87.70;;;;;;5064217;28;20021;-87
2021/06/10 01:36:49;;;;;;;9.68;5.82;;;15.70;87.80;;;;;;5067500;28;20052;-88
2021/06/10 01:39:26;;;;;;;8.60;5.63;;;15.70;88.00;;;;;;5036105;28;20508;-87
2021/06/10 01:41:53;;;;;;;7.22;6.18;;;15.70;88.80;;;;;;5048423;28;20049;-86
2021/06/10 01:44:22;;;;;;;8.20;5.90;;;15.60;88.30;;;;;;5060149;28;20355;-87
2021/06/10 01:46:51;;;;;;;9.95;6.15;;;15.60;88.50;;;;;;5058262;28;20031;-86
2021/06/10 01:49:17;;;;;;;9.00;6.03;;;15.60;88.60;;;;;;5058905;28;20013;-86
2021/06/10 01:51:45;;;;;;;12.83;6.63;;;15.60;88.60;;;;;;5065661;28;20024;-86
2021/06/10 01:54:11;;;;;;;;;;;15.70;88.60;;;;;;5053590;28;20254;-87
2021/06/10 01:56:38;;;;;;;12.07;6.68;;;15.70;88.30;;;;;;5074558;28;19958;-86
2021/06/10 01:59:05;;;;;;;10.25;6.50;;;15.60;88.50;;;;;;5072142;28;20017;-88
2021/06/10 02:01:32;;;;;;;10.82;5.72;;;15.60;88.80;;;;;;5068611;28;20029;-85
2021/06/10 02:03:59;;;;;;;9.77;6.47;;;15.60;88.70;;;;;;5050880;28;20016;-85
2021/06/10 02:06:27;;;;;;;13.68;6.53;;;15.50;88.60;;;;;;5064720;28;20022;-86
2021/06/10 02:08:54;;;;;;;8.10;5.93;;;15.50;88.60;;;;;;5042487;28;20097;-84
2021/06/10 02:11:20;;;;;;;6.57;5.80;;;15.50;88.70;;;;;;5055953;28;20494;-85
2021/06/10 02:13:49;;;;;;;10.15;6.28;;;15.50;89.10;;;;;;5074892;28;20067;-83
2021/06/10 02:16:16;;;;;;;7.97;5.85;;;15.50;88.40;;;;;;5089223;28;20024;-83
2021/06/10 02:18:46;;;;;;;7.65;5.45;;;15.50;88.40;;;;;;5074513;28;20351;-85
2021/06/10 02:21:13;;;;;;;8.25;6.63;;;15.50;88.20;;;;;;5061821;28;20040;-86
2021/06/10 02:23:42;;;;;;;10.20;6.35;;;15.50;88.40;;;;;;5061171;28;20517;-86
2021/06/10 02:26:09;;;;;;;8.23;5.85;;;15.50;88.10;;;;;;5052216;28;20020;-85
2021/06/10 02:28:35;;;;;;;7.20;4.93;;;15.40;88.30;;;;;;5072191;28;20478;-85
2021/06/10 02:31:03;;;;;;;10.63;6.60;;;15.40;88.40;;;;;;5067370;28;20021;-83
2021/06/10 02:33:29;;;;;;;9.48;6.70;;;15.30;88.60;;;;;;5070791;28;20436;-84
2021/06/10 02:35:55;;;;;;;6.93;5.88;;;15.30;88.80;;;;;;5064903;28;20018;-85
2021/06/10 02:38:24;;;;;;;7.68;6.10;;;15.30;88.90;;;;;;5070170;28;20500;-85
2021/06/10 02:40:52;;;;;;;11.20;5.75;;;15.30;88.90;;;;;;5064530;28;20020;-85
2021/06/10 02:43:19;;;;;;;6.43;5.28;;;15.30;88.80;;;;;;5068495;28;20033;-85
2021/06/10 02:45:47;;;;;;;7.03;6.10;;;15.30;88.70;;;;;;5062709;28;20052;-87
2021/06/10 02:48:13;;;;;;;9.18;5.80;;;15.20;89.00;;;;;;5066938;28;20051;-87
2021/06/10 02:50:41;;;;;;;7.03;5.60;;;15.20;89.40;;;;;;5046469;28;20025;-86
2021/06/10 02:53:15;;;;;;;16.30;6.18;;;15.20;89.60;;;;;;5061959;28;20017;-85
2021/06/10 02:55:42;;;;;;;6.95;4.90;;;15.30;89.10;;;;;;5064408;28;20032;-85
2021/06/10 02:58:09;;;;;;;8.63;5.47;;;15.20;88.80;;;;;;5074888;28;20019;-82
2021/06/10 03:00:35;;;;;;;14.95;6.68;;;15.20;88.90;;;;;;5073541;28;20032;-85
2021/06/10 03:03:02;;;;;;;10.18;6.53;;;15.20;89.30;;;;;;5073279;28;20039;-85
2021/06/10 03:05:30;;;;;;;7.72;5.97;;;15.20;89.40;;;;;;5058978;28;20100;-84
2021/06/10 03:07:56;;;;;;;8.13;6.10;;;15.20;89.20;;;;;;5064522;28;20108;-84
2021/06/10 03:10:28;;;;;;;14.75;6.60;;;15.10;89.20;;;;;;5055228;28;20017;-83
2021/06/10 03:12:55;;;;;;;11.20;7.13;;;15.20;89.40;;;;;;5039276;28;20020;-85
2021/06/10 03:15:22;;;;;;;7.88;6.68;;;15.20;89.00;;;;;;5062230;28;20024;-84
2021/06/10 03:17:49;;;;;;;6.67;5.47;;;15.30;89.10;;;;;;5065025;28;20017;-86
2021/06/10 03:20:15;;;;;;;8.02;5.35;;;15.30;88.90;;;;;;5064729;28;20098;-84
2021/06/10 03:22:42;;;;;;;9.48;6.43;;;15.30;88.90;;;;;;5067761;28;20857;-85
2021/06/10 03:25:09;;;;;;;6.97;5.93;;;15.20;89.00;;;;;;5050993;28;20020;-83
2021/06/10 03:27:36;;;;;;;8.52;6.30;;;15.30;89.10;;;;;;5063307;28;20445;-85
2021/06/10 03:30:05;;;;;;;13.50;6.80;;;15.30;89.10;;;;;;5054965;28;20051;-85
2021/06/10 03:32:31;;;;;;;11.07;6.60;;;15.20;89.10;;;;;;5055170;28;20036;-85
2021/06/10 03:34:57;;;;;;;9.68;6.72;;;15.20;89.20;;;;;;5054866;28;20471;-84
2021/06/10 03:37:24;;;;;;;9.00;6.40;;;15.10;90.20;;;;;;5035627;28;20025;-84
2021/06/10 03:39:54;;;;;;;9.60;7.20;;;15.20;89.90;;;;;;5055019;28;20013;-86
2021/06/10 03:42:22;;;;;;;8.25;6.30;;;15.20;89.60;;;;;;5057478;28;20041;-86
2021/06/10 03:44:48;;;;;;;12.05;6.45;;;15.20;89.50;;;;;;5054805;28;20017;-84
2021/06/10 03:47:15;;;;;;;8.73;6.15;;;15.20;89.70;;;;;;5040250;28;20112;-87
2021/06/10 03:49:41;;;;;;;13.93;7.03;;;15.20;89.70;;;;;;5041547;28;20021;-85
2021/06/10 03:52:08;;;;;;;9.40;5.93;;;15.20;89.90;;;;;;5058459;28;20021;-85
2021/06/10 03:54:34;;;;;;;10.20;6.53;;;15.20;90.20;;;;;;5041623;28;20027;-87
2021/06/10 03:57:00;;;;;;;9.18;6.05;;;15.20;90.20;;;;;;5051638;28;20040;-86
2021/06/10 03:59:26;;;;;;;7.72;6.18;;;15.20;90.00;;;;;;5054311;28;20050;-85
2021/06/10 04:01:52;;;;;;;8.32;6.07;;;15.20;89.60;;;;;;5054556;28;20037;-85
2021/06/10 04:04:18;;;;;;;9.90;6.07;;;15.20;89.90;;;;;;5042802;28;20362;-85
2021/06/10 04:06:45;;;;;;;10.27;6.28;;;15.20;89.80;;;;;;5055181;28;20033;-84
2021/06/10 04:09:10;;;;;;;10.75;6.75;;;15.20;89.40;;;;;;5040806;28;20060;-83
2021/06/10 04:11:40;;;;;;;9.40;6.72;;;15.20;89.70;;;;;;5059258;28;20041;-84
2021/06/10 04:14:06;;;;;;;12.40;6.25;;;15.10;89.90;;;;;;5050070;28;20525;-85
2021/06/10 04:16:38;;;;;;;8.55;5.93;;;15.10;89.90;;;;;;5063942;28;20032;-86
2021/06/10 04:19:09;;;;;;;12.13;7.47;;;14.90;90.40;;;;;;5055615;28;20402;-90
2021/06/10 04:21:35;;;;;;;12.30;7.28;;;14.70;91.40;;;;;;5053566;28;20040;-87
2021/06/10 04:24:02;;;;;;;11.23;7.25;;;14.40;91.80;;;;;;5036035;28;20029;-87
2021/06/10 04:26:28;;;;;;;7.50;6.70;;;14.20;92.40;;;;;;5054627;28;20480;-86
2021/06/10 04:28:53;;;;;;;10.75;6.47;;;14.10;92.90;;;;;;5058862;28;20804;-86
2021/06/10 04:31:20;;;;;;;10.45;6.32;;;14.00;93.30;;;;;;5074009;28;20020;-84
2021/06/10 04:33:47;;;;;;;12.43;7.50;;;14.00;93.40;;;;;;5071824;28;20437;-85
2021/06/10 04:36:13;;;;;;;9.27;6.78;;;14.10;93.50;;;;;;5074686;28;20533;-86
2021/06/10 04:38:40;;;;;;;12.77;8.02;;;14.10;93.50;;;;;;5075170;28;20437;-87
2021/06/10 04:41:07;;;;;;;11.32;7.18;;;14.10;93.60;;;;;;5075048;28;20474;-85
2021/06/10 04:43:33;;;;;;;16.90;7.50;;;14.10;93.60;;;;;;5075054;28;20036;-87
2021/06/10 04:45:59;;;;;;;10.85;6.68;;;14.10;93.60;;;;;;5077672;28;20027;-89
2021/06/10 04:48:26;;;;;;;11.23;7.45;;;14.10;93.60;;;;;;5075604;28;20394;-90
2021/06/10 04:50:54;;;;;;;13.40;7.63;;;14.00;94.00;;;;;;5076135;28;20028;-90
2021/06/10 04:53:20;;;;;;;12.13;7.45;;;14.10;94.10;;;;;;5065624;28;20398;-85
2021/06/10 04:55:46;;;;;;;9.27;7.13;;;14.10;94.00;;;;;;5078207;28;20024;-86
2021/06/10 04:58:14;;;;;;;9.95;7.45;;;14.10;93.70;;;;;;5076913;28;20020;-89
2021/06/10 05:00:40;;;;;;;11.23;6.65;;;14.10;94.00;;;;;;5072346;28;20028;-87
2021/06/10 05:03:07;;;;;;;16.08;10.15;;;14.10;93.80;;;;;;5075365;28;20170;-88
2021/06/10 05:05:33;;;;;;;11.45;8.15;;;14.10;94.20;;;;;;5075193;28;20028;-90
2021/06/10 05:07:59;;;;;;;11.82;8.45;;;14.10;94.40;;;;;;5074500;28;20059;-89
2021/06/10 05:10:26;;;;;;;10.77;8.45;;;14.10;94.40;;;;;;5073499;28;20454;-88
2021/06/10 05:12:52;;;;;;;12.05;8.10;;;14.10;94.30;;;;;;5075227;28;20025;-90
2021/06/10 05:15:18;;;;;;;10.52;7.88;;;14.10;94.60;;;;;;5078446;28;20021;-86
2021/06/10 05:17:44;;;;;;;12.45;8.57;;;14.00;94.30;;;;;;5074007;28;20455;-88
2021/06/10 05:20:10;;;;;;;13.20;8.40;;;14.00;94.50;;;;;;5074351;28;20016;-86
2021/06/10 05:22:36;;;;;;;10.52;8.27;;;14.00;94.60;;;;;;5075018;28;20070;-84
2021/06/10 05:25:03;;;;;;;11.43;8.40;;;14.00;94.40;;;;;;5074589;28;20028;-85
2021/06/10 05:27:29;;;;;;;10.80;8.37;;;14.10;94.40;;;;;;5076205;28;20067;-85
2021/06/10 05:29:54;;;;;;;12.55;8.60;;;14.00;94.30;;;;;;5077366;28;20695;-84
2021/06/10 05:32:20;;;;;;;10.88;7.80;;;14.00;94.30;;;;;;5066739;28;20082;-86
2021/06/10 05:34:50;;;;;;;11.63;8.68;;;14.00;94.30;;;;;;5078509;28;20485;-88
2021/06/10 05:37:20;;;;;;;12.02;8.50;;;13.90;94.40;;;;;;5079372;28;20032;-88
2021/06/10 05:39:46;;;;;;;12.90;9.27;;;13.90;94.50;;;;;;5078254;28;20017;-84
2021/06/10 05:42:14;;;;;;;10.48;9.20;;;13.80;94.90;;;;;;5067840;28;20040;-87
2021/06/10 05:44:40;;;;;;;11.95;8.80;;;13.90;95.10;;;;;;5076323;28;20096;-83
2021/06/10 05:47:06;;;;;;;10.88;9.10;;;13.90;94.90;;;;;;5078483;28;20028;-84
2021/06/10 05:49:31;;;;;;;10.85;9.63;;;13.80;95.00;;;;;;5071764;28;20081;-86
2021/06/10 05:51:57;;;;;;;12.13;8.77;;;13.80;95.60;;;;;;5078073;28;20441;-87
2021/06/10 05:54:23;;;;;;;9.77;7.97;;;13.90;95.60;;;;;;5076824;28;20020;-84
2021/06/10 05:56:51;;;;;;;10.77;9.50;;;14.00;95.20;;;;;;5071027;28;20122;-85
2021/06/10 05:59:17;;;;;;;11.77;8.73;;;14.00;95.40;;;;;;5076707;28;20028;-86
2021/06/10 06:01:43;;;;;;;10.13;7.85;;;14.10;95.40;;;;;;5075822;28;20024;-85
2021/06/10 06:04:09;;;;;;;10.40;8.20;;;14.10;95.40;;;;;;5072563;28;20116;-86
2021/06/10 06:06:35;;;;;;;12.85;9.82;;;14.00;95.20;;;;;;5070105;28;20144;-87
2021/06/10 06:09:06;;;;;;;10.23;8.85;;;13.90;95.40;;;;;;5074074;28;20389;-86
2021/06/10 06:11:32;;;;;;;12.43;9.23;;;13.80;95.70;;;;;;5079634;28;20507;-85
2021/06/10 06:14:07;;;;;;;11.25;7.88;;;13.80;95.70;;;;;;5089752;28;20029;-84
2021/06/10 06:16:37;;;;;;;9.75;7.10;;;13.70;95.70;;;;;;5094767;28;20024;-88
2021/06/10 06:19:06;;;;;;;14.95;7.97;;;13.60;95.70;;;;;;5083360;28;20028;-87
2021/06/10 06:21:33;;;;;;;8.82;7.55;;;13.50;95.90;;;;;;5080005;28;20028;-84
2021/06/10 06:24:00;;;;;;;7.53;6.50;;;13.50;96.30;;;;;;5062886;28;20012;-89
2021/06/10 06:26:26;;;;;;;9.45;6.10;;;13.60;96.10;;;;;;5073029;28;20466;-88
2021/06/10 06:28:54;;;;;;;6.45;5.57;;;13.60;96.00;;;;;;5080557;28;20048;-86
2021/06/10 06:31:20;;;;;;;7.50;5.40;;;13.50;95.90;;;;;;5081244;28;20013;-81
2021/06/10 06:33:46;;;;;;;10.30;5.72;;;13.60;95.70;;;;;;5078986;28;20025;-85
2021/06/10 06:36:12;;;;;;;7.35;5.88;;;13.60;95.70;;;;;;5078939;28;20033;-87
2021/06/10 06:38:38;;;;;;;7.50;5.75;;;13.70;95.80;;;;;;5076886;28;20082;-86
2021/06/10 06:41:05;;;;;;;7.65;5.60;;;13.70;95.50;;;;;;5064868;28;20024;-87
2021/06/10 06:43:31;;;;;;;8.75;5.72;;;13.60;95.30;;;;;;5077034;28;20032;-88
2021/06/10 06:45:58;;;;;;;9.68;6.93;;;13.60;95.60;;;;;;5078995;28;20032;-86
2021/06/10 06:48:24;;;;;;;13.55;7.85;;;13.80;95.90;;;;;;5066621;28;20043;-86
2021/06/10 06:50:50;;;;;;;9.55;7.80;;;13.70;95.70;;;;;;5077453;28;20016;-87
2021/06/10 06:53:16;;;;;;;11.27;7.78;;;13.60;96.10;;;;;;5081694;28;20497;-86
2021/06/10 06:55:44;;;;;;;9.25;7.28;;;13.60;96.40;;;;;;5073303;28;20052;-86
2021/06/10 06:58:11;;;;;;;12.18;8.73;;;13.70;96.20;;;;;;5078811;28;20082;-84
2021/06/10 07:00:36;;;;;;;11.93;8.32;;;13.50;96.20;;;;;;5080247;28;20025;-85
2021/06/10 07:03:02;;;;;;;9.30;8.05;;;13.50;96.60;;;;;;5083877;28;20036;-87
2021/06/10 07:05:28;;;;;;;12.57;8.30;;;13.50;96.60;;;;;;5084751;28;20024;-86
2021/06/10 07:07:54;;;;;;;12.07;7.32;;;13.50;96.50;;;;;;5083603;28;20012;-87
2021/06/10 07:10:20;;;;;;;9.98;5.82;;;13.50;96.30;;;;;;5078765;28;20032;-87
2021/06/10 07:12:46;;;;;;;7.80;6.63;;;13.30;96.00;;;;;;5069357;28;20021;-88
2021/06/10 07:15:12;;;;;;;8.52;6.35;;;13.30;96.40;;;;;;5078217;28;20028;-87
2021/06/10 07:17:38;;;;;;;10.68;6.40;;;13.30;96.50;;;;;;5076959;28;20055;-88
2021/06/10 07:20:05;;;;;;;6.95;5.72;;;13.30;96.50;;;;;;5077488;28;20377;-86
2021/06/10 07:22:37;;;;;;;8.38;6.55;;;13.30;96.40;;;;;;5075403;28;20120;-87
2021/06/10 07:25:04;;;;;;;11.73;7.22;;;13.20;96.40;;;;;;5075393;28;20111;-86
2021/06/10 07:27:30;;;;;;;9.27;7.75;;;13.20;96.70;;;;;;5075538;28;20551;-86
2021/06/10 07:29:58;;;;;;;10.15;7.82;;;13.10;96.80;;;;;;5074550;28;20044;-86
2021/06/10 07:32:24;;;;;;;12.68;8.80;;;13.10;97.10;;;;;;5076717;28;20056;-87
2021/06/10 07:34:50;;;;;;;10.45;8.20;;;13.00;97.20;;;;;;5075740;28;20486;-88
2021/06/10 07:37:16;;;;;;;10.77;8.88;;;13.10;97.40;;;;;;5076777;28;20504;-87
2021/06/10 07:39:42;;;;;;;9.20;8.00;;;13.10;97.40;;;;;;5076218;28;20039;-87
2021/06/10 07:42:09;;;;;;;15.10;10.85;;;13.10;97.30;;;;;;5076297;28;20044;-87
2021/06/10 07:44:35;;;;;;;11.67;9.53;;;13.10;97.60;;;;;;5078882;28;20017;-88
2021/06/10 07:47:01;;;;;;;10.25;9.23;;;13.10;97.60;;;;;;5081783;28;20269;-88
2021/06/10 07:49:27;;;;;;;17.15;10.07;;;13.10;97.80;;;;;;5069492;28;20024;-87
2021/06/10 07:51:53;;;;;;;11.35;8.45;;;13.20;97.70;;;;;;5058527;28;20437;-86
2021/06/10 07:54:19;;;;;;;10.85;8.85;;;13.20;97.60;;;;;;5067447;28;20020;-88
2021/06/10 07:56:45;;;;;;;11.40;9.52;;;13.20;97.40;;;;;;5071119;28;20059;-87
2021/06/10 07:59:11;;;;;;;11.95;9.73;;;13.20;97.50;;;;;;5075685;28;20473;-87
2021/06/10 08:01:37;;;;;;;12.07;9.40;;;13.20;97.50;;;;;;5076594;28;20029;-88
2021/06/10 08:04:04;;;;;;;10.18;8.52;;;13.10;97.70;;;;;;5076566;28;20035;-86
2021/06/10 08:06:30;;;;;;;13.23;10.05;;;13.10;97.70;;;;;;5076604;28;20024;-88
2021/06/10 08:08:56;;;;;;;10.48;8.63;;;13.00;97.80;;;;;;5078040;28;20028;-88
2021/06/10 08:11:21;;;;;;;12.73;10.32;;;13.00;98.30;;;;;;5079447;28;20021;-89
2021/06/10 08:13:47;;;;;;;13.45;10.65;;;13.10;98.50;;;;;;5081315;28;20032;-87
2021/06/10 08:16:13;;;;;;;13.60;10.70;;;13.20;98.50;;;;;;5070564;28;20025;-88
2021/06/10 08:18:39;;;;;;;14.07;10.88;;;13.20;98.30;;;;;;5072075;28;20033;-86
2021/06/10 08:21:05;;;;;;;14.48;12.43;;;13.20;98.50;;;;;;5091413;28;20116;-87
2021/06/10 08:23:32;;;;;;;14.85;10.90;;;13.20;98.70;;;;;;5096310;28;20320;-89
2021/06/10 08:26:00;;;;;;;12.90;9.63;;;13.20;98.80;;;;;;5081990;28;20025;-86
2021/06/10 08:28:28;;;;;;;13.68;10.05;;;13.30;98.80;;;;;;5076394;28;20498;-90
2021/06/10 08:30:55;;;;;;;13.20;9.30;;;13.20;98.70;;;;;;5080407;28;20048;-86
2021/06/10 08:33:22;;;;;;;11.27;9.52;;;13.10;98.60;;;;;;5078243;28;20470;-87
2021/06/10 08:35:48;;;;;;;15.60;10.60;;;13.10;98.60;;;;;;5075295;28;20069;-89
2021/06/10 08:38:16;;;;;;;15.18;9.93;;;13.10;98.70;;;;;;5073032;28;20431;-89
2021/06/10 08:40:42;;;;;;;10.88;9.45;;;13.10;98.70;;;;;;5078023;28;20024;-89
2021/06/10 08:43:09;;;;;;;13.50;9.07;;;13.10;98.60;;;;;;5073963;28;20040;-88
2021/06/10 08:45:37;;;;;;;14.50;10.20;;;13.10;98.80;;;;;;5066191;28;20016;-87
2021/06/10 08:48:04;;;;;;;12.48;9.88;;;13.10;98.70;;;;;;5075153;28;20079;-88
2021/06/10 08:50:32;;;;;;;13.03;10.40;;;13.10;98.90;;;;;;5069459;28;20019;-87
2021/06/10 08:52:59;;;;;;;12.20;10.13;;;13.00;99.10;;;;;;5076732;28;20604;-87
2021/06/10 08:55:29;;;;;;;14.25;9.95;;;13.00;99.40;;;;;;5074903;28;20036;-85
2021/06/10 08:57:55;;;;;;;13.93;10.45;;;13.10;99.40;;;;;;5076347;28;20048;-87
2021/06/10 09:00:23;;;;;;;13.55;11.13;;;13.10;99.40;;;;;;5076439;28;20016;-89
2021/06/10 09:02:51;;;;;;;18.25;11.32;;;13.10;99.50;;;;;;5076748;28;20040;-88
2021/06/10 09:05:19;;;;;;;15.70;10.73;;;13.10;99.30;;;;;;5066459;28;20098;-89
2021/06/10 09:07:54;;;;;;;16.90;11.77;;;13.20;99.50;;;;;;5076837;28;20083;-88
2021/06/10 09:10:25;;;;;;;14.68;11.40;;;13.40;99.60;;;;;;5075374;28;20028;-87
2021/06/10 09:12:58;;;;;;;15.15;11.65;;;13.50;99.30;;;;;;5061161;28;20096;-87
2021/06/10 09:15:26;;;;;;;14.32;9.93;;;13.40;99.00;;;;;;5075363;28;20035;-88
2021/06/10 09:17:54;;;;;;;15.15;10.50;;;13.30;99.10;;;;;;5061411;28;20023;-88
2021/06/10 09:20:21;;;;;;;19.15;12.18;;;13.30;99.70;;;;;;5075119;28;20025;-88
2021/06/10 09:22:49;;;;;;;14.63;11.02;;;13.40;99.50;;;;;;5074412;28;20417;-88
2021/06/10 09:25:19;;;;;;;12.93;9.82;;;13.40;99.40;;;;;;5075508;28;20513;-88
2021/06/10 09:27:57;;;;;;;15.70;10.95;;;13.40;99.50;;;;;;5075457;28;20028;-90
2021/06/10 09:30:47;;;;;;;15.52;11.25;;;13.30;99.40;;;;;;5079419;28;20048;-88
2021/06/10 09:33:24;;;;;;;14.43;11.15;;;13.30;99.60;;;;;;5075397;28;20025;-91
2021/06/10 09:35:51;;;;;;;15.30;11.00;;;13.30;99.90;;;;;;5076141;28;20063;-88
2021/06/10 09:38:20;;;;;;;;;;;13.40;99.90;;;;;;5076237;28;20258;-87
2021/06/10 09:41:03;;;;;;;15.25;9.52;;;13.30;99.40;;;;;;5062970;28;19904;-89
2021/06/10 09:43:42;;;;;;;17.10;11.57;;;13.30;99.90;;;;;;5063320;28;20032;-87
2021/06/10 09:46:08;;;;;;;15.65;10.43;;;13.30;99.90;;;;;;5079321;28;20024;-88
2021/06/10 09:48:34;;;;;;;13.70;9.88;;;13.40;99.90;;;;;;5080777;28;20024;-88
2021/06/10 09:51:01;;;;;;;15.73;10.45;;;13.50;99.90;;;;;;5077853;28;20028;-89
2021/06/10 09:53:29;;;;;;;14.60;10.75;;;13.50;99.90;;;;;;5076955;28;20024;-89
2021/06/10 09:56:06;;;;;;;11.48;9.60;;;13.50;99.90;;;;;;5068404;28;20025;-91
2021/06/10 09:58:39;;;;;;;11.35;9.65;;;13.50;99.90;;;;;;5071180;28;20032;-87
2021/06/10 10:01:20;;;;;;;15.70;10.88;;;13.50;99.90;;;;;;5076223;28;20035;-88
2021/06/10 10:03:49;;;;;;;17.25;10.70;;;13.60;99.90;;;;;;5064470;28;20044;-90
2021/06/10 10:06:27;;;;;;;16.92;11.15;;;13.60;99.90;;;;;;5079177;28;20096;-90
2021/06/10 10:08:59;;;;;;;17.25;10.02;;;13.60;99.90;;;;;;5081998;28;20025;-87
2021/06/10 10:11:26;;;;;;;12.15;8.93;;;13.70;99.90;;;;;;5086288;28;20040;-90
2021/06/10 10:13:54;;;;;;;14.32;11.25;;;13.70;99.90;;;;;;5074761;28;20155;-89
2021/06/10 10:16:25;;;;;;;15.60;9.23;;;13.70;99.90;;;;;;5081865;28;20028;-89
2021/06/10 10:18:53;;;;;;;13.68;10.73;;;13.70;99.90;;;;;;5075302;28;20112;-91
2021/06/10 10:21:27;;;;;;;13.88;10.35;;;13.60;99.90;;;;;;5081550;28;20012;-87
2021/06/10 10:23:57;;;;;;;11.48;8.15;;;13.70;99.90;;;;;;5083839;28;20055;-91
2021/06/10 10:26:23;;;;;;;15.20;11.88;;;13.70;99.90;;;;;;5091419;28;20009;-88
2021/06/10 10:28:49;;;;;;;14.57;10.63;;;13.70;99.90;;;;;;5097912;28;20076;-89
2021/06/10 10:31:15;;;;;;;15.25;10.95;;;13.70;99.90;;;;;;5096764;28;20028;-90
2021/06/10 10:33:46;;;;;;;15.68;12.55;;;13.70;99.90;;;;;;5073255;28;20111;-88
2021/06/10 10:36:23;;;;;;;16.38;10.82;;;13.70;99.90;;;;;;5079247;28;20406;-87
2021/06/10 10:39:10;;;;;;;17.65;11.50;;;13.70;99.90;;;;;;5070046;28;20488;-89
2021/06/10 10:41:53;;;;;;;14.52;11.55;;;13.80;99.90;;;;;;5077723;28;20028;-90
2021/06/10 10:44:27;;;;;;;15.23;12.07;;;13.80;99.90;;;;;;5060108;28;20045;-88
2021/06/10 10:47:09;;;;;;;14.45;11.68;;;13.80;99.90;;;;;;5064248;28;20421;-89
2021/06/10 10:49:45;;;;;;;13.93;11.85;;;13.90;99.90;;;;;;5076421;28;20559;-88
2021/06/10 10:52:14;;;;;;;18.27;12.68;;;13.90;99.90;;;;;;5071400;28;20033;-87
2021/06/10 10:54:40;;;;;;;16.30;9.75;;;13.90;99.90;;;;;;5077860;28;20017;-87
2021/06/10 10:57:07;;;;;;;17.75;13.73;;;13.90;99.90;;;;;;5079249;28;20104;-88
2021/06/10 10:59:43;;;;;;;20.20;13.73;;;13.90;99.90;;;;;;5081811;28;20024;-88
2021/06/10 11:02:14;;;;;;;15.93;11.95;;;14.00;99.90;;;;;;5078324;28;20047;-90
2021/06/10 11:05:09;;;;;;;19.02;13.27;;;14.10;99.90;;;;;;5081945;28;20016;-88
2021/06/10 11:07:39;;;;;;;20.95;13.82;;;14.10;99.90;;;;;;5079758;28;20051;-88
2021/06/10 11:10:07;;;;;;;15.43;12.30;;;14.10;99.90;;;;;;5081257;28;20039;-88
2021/06/10 11:13:00;;;;;;;22.67;13.27;;;14.10;99.90;;;;;;5080144;28;20029;-88
2021/06/10 11:15:26;;;;;;;17.08;14.10;;;14.10;99.90;;;;;;5083422;28;20029;-87
2021/06/10 11:18:02;;;;;;;20.05;14.48;;;14.10;99.90;;;;;;5081891;28;20021;-88
2021/06/10 11:20:37;;;;;;;16.38;11.88;;;14.10;99.90;;;;;;5078717;28;20024;-88
2021/06/10 11:23:26;;;;;;;18.77;13.30;;;14.10;99.90;;;;;;5064050;28;20389;-87
2021/06/10 11:25:53;;;;;;;16.45;14.20;;;14.00;99.90;;;;;;5078624;28;20031;-89
2021/06/10 11:28:28;;;;;;;18.10;13.95;;;14.00;99.90;;;;;;5079613;28;20028;-90
2021/06/10 11:31:13;;;;;;;18.95;14.30;;;14.10;99.90;;;;;;5077154;28;20047;-90
2021/06/10 11:33:39;;;;;;;20.38;13.57;;;14.10;99.90;;;;;;5079423;28;20470;-89
2021/06/10 11:36:07;;;;;;;23.92;15.15;;;14.10;99.90;;;;;;5068702;28;20028;-87
2021/06/10 11:38:41;;;;;;;16.92;15.07;;;14.10;99.90;;;;;;5071947;28;20029;-87
2021/06/10 11:41:19;;;;;;;22.30;14.60;;;14.10;99.90;;;;;;5076648;28;20017;-88
2021/06/10 11:43:53;;;;;;;;;;;14.10;99.90;;;;;;5077533;28;20036;-88
2021/06/10 11:46:19;;;;;;;24.10;17.50;;;14.10;99.90;;;;;;5076672;28;20011;-87
2021/06/10 11:48:51;;;;;;;19.67;15.77;;;14.20;99.90;;;;;;5077312;28;20047;-89
2021/06/10 11:51:28;;;;;;;19.42;15.32;;;14.20;99.90;;;;;;5076338;28;20470;-89
2021/06/10 11:54:14;;;;;;;23.25;14.73;;;14.20;99.90;;;;;;5064197;28;20035;-87
2021/06/10 11:56:44;;;;;;;21.60;15.13;;;14.20;99.90;;;;;;5074929;28;20118;-88
2021/06/10 11:59:24;;;;;;;19.50;16.60;;;14.30;99.90;;;;;;5077471;28;20047;-89
2021/06/10 12:02:07;;;;;;;22.23;14.55;;;14.40;99.90;;;;;;5078051;28;20091;-89
2021/06/10 12:04:35;;;;;;;22.10;16.27;;;14.50;99.90;;;;;;5064516;28;20024;-89
2021/06/10 12:07:05;;;;;;;22.10;14.75;;;14.40;99.90;;;;;;5076398;28;20055;-88
2021/06/10 12:09:33;;;;;;;20.30;13.63;;;14.50;99.90;;;;;;5080471;28;20401;-87
2021/06/10 12:11:59;;;;;;;;;;;14.60;99.90;;;;;;5088630;28;20028;-86
2021/06/10 12:14:36;;;;;;;16.58;12.63;;;14.50;99.90;;;;;;5083397;28;19915;-89
2021/06/10 12:17:03;;;;;;;17.45;13.40;;;14.50;99.90;;;;;;5067099;28;20026;-88
2021/06/10 12:19:28;;;;;;;20.60;12.93;;;14.60;99.90;;;;;;5077060;28;20017;-89
2021/06/10 12:22:02;;;;;;;20.17;13.48;;;14.60;99.90;;;;;;5067671;28;20433;-87
2021/06/10 12:24:41;;;;;;;21.58;13.52;;;14.60;99.90;;;;;;5077895;28;20040;-88
2021/06/10 12:27:15;;;;;;;15.52;13.15;;;14.70;99.90;;;;;;5078430;28;20013;-90
2021/06/10 12:29:49;;;;;;;17.17;11.75;;;14.80;99.90;;;;;;5084108;28;20043;-87
2021/06/10 12:32:27;;;;;;;16.92;12.65;;;14.90;99.90;;;;;;5086478;28;20024;-87
2021/06/10 12:34:58;;;;;;;22.60;13.80;;;15.00;99.90;;;;;;5091086;28;20027;-88
2021/06/10 12:37:24;;;;;;;17.15;12.95;;;15.10;99.90;;;;;;5096063;28;20017;-88
2021/06/10 12:39:50;;;;;;;24.05;13.23;;;15.10;99.80;;;;;;5102566;22;20053;-89
2021/06/10 12:42:15;;;;;;;15.55;12.20;;;15.20;99.70;;;;;;5076616;28;20109;-91
2021/06/10 12:44:41;;;;;;;18.10;12.60;;;15.30;99.40;;;;;;5082105;28;20067;-89
2021/06/10 12:47:07;;;;;;;18.17;13.18;;;15.40;99.30;;;;;;5078794;28;20502;-90